sensor_id;sensor_type;location;lat;lon;timestamp;temperature;humidity
7174;DHT22;3628;48.654;8.932;2023-08-17T00:02:13;18.30;99.90
7174;DHT22;3628;48.654;8.932;2023-08-17T00:04:39;18.40;99.90
7174;DHT22;3628;48.654;8.932;2023-08-17T00:07:05;18.40;99.90
7174;DHT22;3628;48.654;8.932;2023-08-17T00:09:30;18.40;99.90
7174;DHT22;3628;48.654;8.932;2023-08-17T00:11:56;18.30;99.90
7174;DHT22;3628;48.654;8.932;2023-08-17T00:14:22;18.30;99.90
7174;DHT22;3628;48.654;8.932;2023-08-17T00:16:49;18.30;99.90
7174;DHT22;3628;48.654;8.932;2023-08-17T00:19:15;18.30;99.90
7174;DHT22;3628;48.654;8.932;2023-08-17T00:21:40;18.30;99.90
7174;DHT22;3628;48.654;8.932;2023-08-17T00:24:06;18.20;99.90
7174;DHT22;3628;48.654;8.932;2023-08-17T00:26:32;18.20;99.90
7174;DHT22;3628;48.654;8.932;2023-08-17T00:28:57;18.20;99.90
7174;DHT22;3628;48.654;8.932;2023-08-17T00:31:23;18.20;99.90
7174;DHT22;3628;48.654;8.932;2023-08-17T00:33:48;18.20;99.90
7174;DHT22;3628;48.654;8.932;2023-08-17T00:36:14;18.20;99.90
7174;DHT22;3628;48.654;8.932;2023-08-17T00:38:40;18.10;99.90
7174;DHT22;3628;48.654;8.932;2023-08-17T00:41:06;18.10;99.90
7174;DHT22;3628;48.654;8.932;2023-08-17T00:43:31;18.10;99.90
7174;DHT22;3628;48.654;8.932;2023-08-17T00:45:57;18.10;99.90
7174;DHT22;3628;48.654;8.932;2023-08-17T00:48:23;18.00;99.90
7174;DHT22;3628;48.654;8.932;2023-08-17T00:50:50;18.00;99.90
7174;DHT22;3628;48.654;8.932;2023-08-17T00:53:17;18.00;99.90
7174;DHT22;3628;48.654;8.932;2023-08-17T00:55:44;18.00;99.90
7174;DHT22;3628;48.654;8.932;2023-08-17T00:58:10;18.00;99.90
7174;DHT22;3628;48.654;8.932;2023-08-17T01:00:36;18.00;99.90
7174;DHT22;3628;48.654;8.932;2023-08-17T01:03:01;18.00;99.90
7174;DHT22;3628;48.654;8.932;2023-08-17T01:05:28;17.90;99.90
7174;DHT22;3628;48.654;8.932;2023-08-17T01:07:54;17.90;99.90
7174;DHT22;3628;48.654;8.932;2023-08-17T01:10:20;17.90;99.90
7174;DHT22;3628;48.654;8.932;2023-08-17T01:15:35;17.80;99.90
7174;DHT22;3628;48.654;8.932;2023-08-17T01:18:15;17.80;99.90
7174;DHT22;3628;48.654;8.932;2023-08-17T01:20:43;17.70;99.90
7174;DHT22;3628;48.654;8.932;2023-08-17T01:23:09;17.70;99.90
7174;DHT22;3628;48.654;8.932;2023-08-17T01:25:35;17.70;99.90
7174;DHT22;3628;48.654;8.932;2023-08-17T01:28:03;17.60;99.90
7174;DHT22;3628;48.654;8.932;2023-08-17T01:30:34;17.50;99.90
7174;DHT22;3628;48.654;8.932;2023-08-17T01:33:10;17.50;99.90
7174;DHT22;3628;48.654;8.932;2023-08-17T01:35:50;17.40;99.90
7174;DHT22;3628;48.654;8.932;2023-08-17T01:38:20;17.40;99.90
7174;DHT22;3628;48.654;8.932;2023-08-17T01:40:48;17.30;99.90
7174;DHT22;3628;48.654;8.932;2023-08-17T01:43:16;17.40;99.90
7174;DHT22;3628;48.654;8.932;2023-08-17T01:45:42;17.40;99.90
7174;DHT22;3628;48.654;8.932;2023-08-17T01:48:08;17.40;99.90
7174;DHT22;3628;48.654;8.932;2023-08-17T01:50:33;17.40;99.90
7174;DHT22;3628;48.654;8.932;2023-08-17T01:52:59;17.50;99.90
7174;DHT22;3628;48.654;8.932;2023-08-17T01:55:25;17.50;99.90
7174;DHT22;3628;48.654;8.932;2023-08-17T01:57:50;17.50;99.90
7174;DHT22;3628;48.654;8.932;2023-08-17T02:00:16;17.60;99.90
7174;DHT22;3628;48.654;8.932;2023-08-17T02:02:42;17.60;99.90
7174;DHT22;3628;48.654;8.932;2023-08-17T02:05:08;17.70;99.90
7174;DHT22;3628;48.654;8.932;2023-08-17T02:07:34;17.70;99.90
7174;DHT22;3628;48.654;8.932;2023-08-17T02:09:59;17.70;99.90
7174;DHT22;3628;48.654;8.932;2023-08-17T02:12:25;17.60;99.90
7174;DHT22;3628;48.654;8.932;2023-08-17T02:14:51;17.70;99.90
7174;DHT22;3628;48.654;8.932;2023-08-17T02:17:16;17.60;99.90
7174;DHT22;3628;48.654;8.932;2023-08-17T02:19:45;17.70;99.90
7174;DHT22;3628;48.654;8.932;2023-08-17T02:22:13;17.70;99.90
7174;DHT22;3628;48.654;8.932;2023-08-17T02:24:38;17.80;99.90
7174;DHT22;3628;48.654;8.932;2023-08-17T02:27:04;17.80;99.90
7174;DHT22;3628;48.654;8.932;2023-08-17T02:29:30;17.90;99.90
7174;DHT22;3628;48.654;8.932;2023-08-17T02:31:55;18.00;99.90
7174;DHT22;3628;48.654;8.932;2023-08-17T02:34:21;17.90;99.90
7174;DHT22;3628;48.654;8.932;2023-08-17T02:36:46;18.00;99.90
7174;DHT22;3628;48.654;8.932;2023-08-17T02:39:12;18.00;99.90
7174;DHT22;3628;48.654;8.932;2023-08-17T02:41:38;18.00;99.90
7174;DHT22;3628;48.654;8.932;2023-08-17T02:44:03;18.00;99.90
7174;DHT22;3628;48.654;8.932;2023-08-17T02:46:29;18.10;99.90
7174;DHT22;3628;48.654;8.932;2023-08-17T02:48:54;18.10;99.90
7174;DHT22;3628;48.654;8.932;2023-08-17T02:51:20;18.20;99.90
7174;DHT22;3628;48.654;8.932;2023-08-17T02:53:45;18.20;99.90
7174;DHT22;3628;48.654;8.932;2023-08-17T02:56:11;18.20;99.90
7174;DHT22;3628;48.654;8.932;2023-08-17T02:58:41;18.20;99.90
7174;DHT22;3628;48.654;8.932;2023-08-17T03:01:09;18.20;99.90
7174;DHT22;3628;48.654;8.932;2023-08-17T03:03:35;18.30;99.90
7174;DHT22;3628;48.654;8.932;2023-08-17T03:06:05;18.30;99.90
7174;DHT22;3628;48.654;8.932;2023-08-17T03:08:30;18.30;99.90
7174;DHT22;3628;48.654;8.932;2023-08-17T03:10:56;18.30;99.90
7174;DHT22;3628;48.654;8.932;2023-08-17T03:13:21;18.40;99.90
7174;DHT22;3628;48.654;8.932;2023-08-17T03:15:47;18.40;99.90
7174;DHT22;3628;48.654;8.932;2023-08-17T03:18:12;18.40;99.90
7174;DHT22;3628;48.654;8.932;2023-08-17T03:20:38;18.40;99.90
7174;DHT22;3628;48.654;8.932;2023-08-17T03:23:03;18.40;99.90
7174;DHT22;3628;48.654;8.932;2023-08-17T03:25:33;18.50;99.90
7174;DHT22;3628;48.654;8.932;2023-08-17T03:28:00;18.50;99.90
7174;DHT22;3628;48.654;8.932;2023-08-17T03:30:25;18.50;99.90
7174;DHT22;3628;48.654;8.932;2023-08-17T03:32:51;18.50;99.90
7174;DHT22;3628;48.654;8.932;2023-08-17T03:35:16;18.50;99.90
7174;DHT22;3628;48.654;8.932;2023-08-17T03:37:42;18.60;99.90
7174;DHT22;3628;48.654;8.932;2023-08-17T03:40:08;18.60;99.90
7174;DHT22;3628;48.654;8.932;2023-08-17T03:42:33;18.60;99.90
7174;DHT22;3628;48.654;8.932;2023-08-17T03:44:59;18.60;99.90
7174;DHT22;3628;48.654;8.932;2023-08-17T03:47:24;18.60;99.90
7174;DHT22;3628;48.654;8.932;2023-08-17T03:49:51;18.60;99.90
7174;DHT22;3628;48.654;8.932;2023-08-17T03:52:16;18.60;99.90
7174;DHT22;3628;48.654;8.932;2023-08-17T03:54:42;18.60;99.90
7174;DHT22;3628;48.654;8.932;2023-08-17T03:57:07;18.60;99.90
7174;DHT22;3628;48.654;8.932;2023-08-17T03:59:33;18.60;99.90
7174;DHT22;3628;48.654;8.932;2023-08-17T04:01:59;18.60;99.90
7174;DHT22;3628;48.654;8.932;2023-08-17T04:04:24;18.60;99.90
7174;DHT22;3628;48.654;8.932;2023-08-17T04:06:50;18.70;99.90
7174;DHT22;3628;48.654;8.932;2023-08-17T04:09:15;18.60;99.90
7174;DHT22;3628;48.654;8.932;2023-08-17T04:11:41;18.70;99.90
7174;DHT22;3628;48.654;8.932;2023-08-17T04:14:06;18.70;99.90
7174;DHT22;3628;48.654;8.932;2023-08-17T04:16:34;18.70;99.90
7174;DHT22;3628;48.654;8.932;2023-08-17T04:19:00;18.80;99.90
7174;DHT22;3628;48.654;8.932;2023-08-17T04:21:25;18.80;99.90
7174;DHT22;3628;48.654;8.932;2023-08-17T04:23:51;18.80;99.90
7174;DHT22;3628;48.654;8.932;2023-08-17T04:26:16;18.80;99.90
7174;DHT22;3628;48.654;8.932;2023-08-17T04:28:42;18.90;99.90
7174;DHT22;3628;48.654;8.932;2023-08-17T04:31:07;18.90;99.90
7174;DHT22;3628;48.654;8.932;2023-08-17T04:33:33;18.90;99.90
7174;DHT22;3628;48.654;8.932;2023-08-17T04:35:58;19.00;99.90
7174;DHT22;3628;48.654;8.932;2023-08-17T04:38:25;19.00;99.90
7174;DHT22;3628;48.654;8.932;2023-08-17T04:40:50;19.00;99.90
7174;DHT22;3628;48.654;8.932;2023-08-17T04:43:16;19.00;99.90
7174;DHT22;3628;48.654;8.932;2023-08-17T04:45:41;19.00;99.90
7174;DHT22;3628;48.654;8.932;2023-08-17T04:48:07;19.00;99.90
7174;DHT22;3628;48.654;8.932;2023-08-17T04:50:32;19.00;99.90
7174;DHT22;3628;48.654;8.932;2023-08-17T04:52:58;19.00;99.90
7174;DHT22;3628;48.654;8.932;2023-08-17T04:55:23;19.00;99.90
7174;DHT22;3628;48.654;8.932;2023-08-17T04:57:49;19.10;99.90
7174;DHT22;3628;48.654;8.932;2023-08-17T05:00:15;19.10;99.90
7174;DHT22;3628;48.654;8.932;2023-08-17T05:02:41;19.10;99.90
7174;DHT22;3628;48.654;8.932;2023-08-17T05:05:09;19.10;99.90
7174;DHT22;3628;48.654;8.932;2023-08-17T05:07:35;19.10;99.90
7174;DHT22;3628;48.654;8.932;2023-08-17T05:10:01;19.00;99.90
7174;DHT22;3628;48.654;8.932;2023-08-17T05:12:27;19.00;99.90
7174;DHT22;3628;48.654;8.932;2023-08-17T05:14:52;19.00;99.90
7174;DHT22;3628;48.654;8.932;2023-08-17T05:17:18;19.00;99.90
7174;DHT22;3628;48.654;8.932;2023-08-17T05:19:43;19.00;99.90
7174;DHT22;3628;48.654;8.932;2023-08-17T05:22:12;19.10;99.90
7174;DHT22;3628;48.654;8.932;2023-08-17T05:24:38;19.10;99.90
7174;DHT22;3628;48.654;8.932;2023-08-17T05:27:03;19.20;99.90
7174;DHT22;3628;48.654;8.932;2023-08-17T05:29:29;19.20;99.90
7174;DHT22;3628;48.654;8.932;2023-08-17T05:31:54;19.30;99.90
7174;DHT22;3628;48.654;8.932;2023-08-17T05:34:20;19.30;99.90
7174;DHT22;3628;48.654;8.932;2023-08-17T05:36:45;19.40;99.90
7174;DHT22;3628;48.654;8.932;2023-08-17T05:39:11;19.40;99.90
7174;DHT22;3628;48.654;8.932;2023-08-17T05:41:37;19.40;99.90
7174;DHT22;3628;48.654;8.932;2023-08-17T05:44:02;19.40;99.90
7174;DHT22;3628;48.654;8.932;2023-08-17T05:46:28;19.40;99.90
7174;DHT22;3628;48.654;8.932;2023-08-17T05:48:54;19.30;99.90
7174;DHT22;3628;48.654;8.932;2023-08-17T05:51:19;19.30;99.90
7174;DHT22;3628;48.654;8.932;2023-08-17T05:53:45;19.30;99.90
7174;DHT22;3628;48.654;8.932;2023-08-17T05:56:10;19.30;99.90
7174;DHT22;3628;48.654;8.932;2023-08-17T05:58:36;19.30;99.90
7174;DHT22;3628;48.654;8.932;2023-08-17T06:01:09;19.40;99.90
7174;DHT22;3628;48.654;8.932;2023-08-17T06:03:35;19.40;99.90
7174;DHT22;3628;48.654;8.932;2023-08-17T06:06:01;19.50;99.90
7174;DHT22;3628;48.654;8.932;2023-08-17T06:08:27;19.40;99.90
7174;DHT22;3628;48.654;8.932;2023-08-17T06:10:52;19.40;99.90
7174;DHT22;3628;48.654;8.932;2023-08-17T06:13:18;19.50;99.90
7174;DHT22;3628;48.654;8.932;2023-08-17T06:15:43;19.50;99.90
7174;DHT22;3628;48.654;8.932;2023-08-17T06:18:09;19.50;99.90
7174;DHT22;3628;48.654;8.932;2023-08-17T06:20:34;19.60;99.90
7174;DHT22;3628;48.654;8.932;2023-08-17T06:23:00;19.70;99.90
7174;DHT22;3628;48.654;8.932;2023-08-17T06:25:25;19.70;99.90
7174;DHT22;3628;48.654;8.932;2023-08-17T06:27:51;19.90;99.90
7174;DHT22;3628;48.654;8.932;2023-08-17T06:30:17;19.90;99.90
7174;DHT22;3628;48.654;8.932;2023-08-17T06:32:42;20.00;99.90
7174;DHT22;3628;48.654;8.932;2023-08-17T06:35:08;20.10;99.90
7174;DHT22;3628;48.654;8.932;2023-08-17T06:37:34;20.20;99.90
7174;DHT22;3628;48.654;8.932;2023-08-17T06:40:01;20.20;99.90
7174;DHT22;3628;48.654;8.932;2023-08-17T06:42:27;20.30;99.90
7174;DHT22;3628;48.654;8.932;2023-08-17T06:44:52;20.30;99.90
7174;DHT22;3628;48.654;8.932;2023-08-17T06:47:18;20.30;99.90
7174;DHT22;3628;48.654;8.932;2023-08-17T06:49:43;20.30;99.90
7174;DHT22;3628;48.654;8.932;2023-08-17T06:52:09;20.30;99.90
7174;DHT22;3628;48.654;8.932;2023-08-17T06:54:34;20.30;99.90
7174;DHT22;3628;48.654;8.932;2023-08-17T06:57:00;20.40;99.90
7174;DHT22;3628;48.654;8.932;2023-08-17T06:59:26;20.50;99.90
7174;DHT22;3628;48.654;8.932;2023-08-17T07:01:52;20.60;99.90
7174;DHT22;3628;48.654;8.932;2023-08-17T07:04:17;20.70;99.90
7174;DHT22;3628;48.654;8.932;2023-08-17T07:06:43;20.70;99.90
7174;DHT22;3628;48.654;8.932;2023-08-17T07:09:09;20.80;99.90
7174;DHT22;3628;48.654;8.932;2023-08-17T07:11:37;20.70;99.90
7174;DHT22;3628;48.654;8.932;2023-08-17T07:14:03;20.80;99.90
7174;DHT22;3628;48.654;8.932;2023-08-17T07:16:29;20.90;99.90
7174;DHT22;3628;48.654;8.932;2023-08-17T07:18:54;21.10;99.90
7174;DHT22;3628;48.654;8.932;2023-08-17T07:21:20;21.20;99.90
7174;DHT22;3628;48.654;8.932;2023-08-17T07:23:46;21.30;99.90
7174;DHT22;3628;48.654;8.932;2023-08-17T07:26:12;21.40;99.90
7174;DHT22;3628;48.654;8.932;2023-08-17T07:28:37;21.50;99.90
7174;DHT22;3628;48.654;8.932;2023-08-17T07:31:03;21.60;99.90
7174;DHT22;3628;48.654;8.932;2023-08-17T07:33:31;21.70;99.90
7174;DHT22;3628;48.654;8.932;2023-08-17T07:35:56;21.70;99.90
7174;DHT22;3628;48.654;8.932;2023-08-17T07:38:23;21.70;99.90
7174;DHT22;3628;48.654;8.932;2023-08-17T07:40:49;21.80;99.90
7174;DHT22;3628;48.654;8.932;2023-08-17T07:43:15;21.90;99.90
7174;DHT22;3628;48.654;8.932;2023-08-17T07:45:40;21.90;99.90
7174;DHT22;3628;48.654;8.932;2023-08-17T07:48:06;21.90;99.90
7174;DHT22;3628;48.654;8.932;2023-08-17T07:50:31;22.00;99.90
7174;DHT22;3628;48.654;8.932;2023-08-17T07:52:57;21.90;99.90
7174;DHT22;3628;48.654;8.932;2023-08-17T07:55:23;22.00;99.90
7174;DHT22;3628;48.654;8.932;2023-08-17T07:57:48;22.10;99.90
7174;DHT22;3628;48.654;8.932;2023-08-17T08:00:14;22.10;99.90
7174;DHT22;3628;48.654;8.932;2023-08-17T08:02:40;22.20;99.90
7174;DHT22;3628;48.654;8.932;2023-08-17T08:05:05;22.30;99.90
7174;DHT22;3628;48.654;8.932;2023-08-17T08:07:31;22.40;99.90
7174;DHT22;3628;48.654;8.932;2023-08-17T08:09:57;22.50;99.90
7174;DHT22;3628;48.654;8.932;2023-08-17T08:12:23;22.70;99.90
7174;DHT22;3628;48.654;8.932;2023-08-17T08:14:48;22.80;99.90
7174;DHT22;3628;48.654;8.932;2023-08-17T08:17:14;22.90;99.90
7174;DHT22;3628;48.654;8.932;2023-08-17T08:19:40;23.10;99.90
7174;DHT22;3628;48.654;8.932;2023-08-17T08:22:05;23.30;99.90
7174;DHT22;3628;48.654;8.932;2023-08-17T08:24:31;23.40;99.90
7174;DHT22;3628;48.654;8.932;2023-08-17T08:27:00;23.50;99.90
7174;DHT22;3628;48.654;8.932;2023-08-17T08:29:26;23.50;99.90
7174;DHT22;3628;48.654;8.932;2023-08-17T08:31:53;23.60;99.90
7174;DHT22;3628;48.654;8.932;2023-08-17T08:34:18;23.70;99.90
7174;DHT22;3628;48.654;8.932;2023-08-17T08:36:44;23.80;99.90
7174;DHT22;3628;48.654;8.932;2023-08-17T08:39:10;23.80;99.90
7174;DHT22;3628;48.654;8.932;2023-08-17T08:41:37;24.00;99.90
7174;DHT22;3628;48.654;8.932;2023-08-17T08:44:03;24.20;99.90
7174;DHT22;3628;48.654;8.932;2023-08-17T08:46:30;24.40;99.90
7174;DHT22;3628;48.654;8.932;2023-08-17T08:48:57;24.60;99.90
7174;DHT22;3628;48.654;8.932;2023-08-17T08:51:27;24.80;99.90
7174;DHT22;3628;48.654;8.932;2023-08-17T08:54:02;25.10;99.90
7174;DHT22;3628;48.654;8.932;2023-08-17T08:56:34;25.20;99.90
7174;DHT22;3628;48.654;8.932;2023-08-17T08:59:02;25.30;99.90
7174;DHT22;3628;48.654;8.932;2023-08-17T09:01:30;25.50;99.90
7174;DHT22;3628;48.654;8.932;2023-08-17T09:03:59;25.60;99.90
7174;DHT22;3628;48.654;8.932;2023-08-17T09:06:26;25.80;99.90
7174;DHT22;3628;48.654;8.932;2023-08-17T09:08:52;25.90;99.90
7174;DHT22;3628;48.654;8.932;2023-08-17T09:11:18;26.20;99.90
7174;DHT22;3628;48.654;8.932;2023-08-17T09:13:43;26.50;99.90
7174;DHT22;3628;48.654;8.932;2023-08-17T09:16:09;26.80;99.90
7174;DHT22;3628;48.654;8.932;2023-08-17T09:18:35;27.10;99.90
7174;DHT22;3628;48.654;8.932;2023-08-17T09:21:01;27.40;99.90
7174;DHT22;3628;48.654;8.932;2023-08-17T09:23:26;27.60;99.90
7174;DHT22;3628;48.654;8.932;2023-08-17T09:25:52;27.90;99.90
7174;DHT22;3628;48.654;8.932;2023-08-17T09:28:23;28.10;99.90
7174;DHT22;3628;48.654;8.932;2023-08-17T09:30:58;28.30;99.90
7174;DHT22;3628;48.654;8.932;2023-08-17T09:33:26;28.40;99.90
7174;DHT22;3628;48.654;8.932;2023-08-17T09:35:52;28.40;99.90
7174;DHT22;3628;48.654;8.932;2023-08-17T09:38:19;28.50;99.90
7174;DHT22;3628;48.654;8.932;2023-08-17T09:40:46;28.30;99.90
7174;DHT22;3628;48.654;8.932;2023-08-17T09:43:11;28.30;99.90
7174;DHT22;3628;48.654;8.932;2023-08-17T09:45:38;28.60;99.90
7174;DHT22;3628;48.654;8.932;2023-08-17T09:48:08;28.80;99.90
7174;DHT22;3628;48.654;8.932;2023-08-17T09:50:34;29.20;99.90
7174;DHT22;3628;48.654;8.932;2023-08-17T09:53:02;29.30;99.90
7174;DHT22;3628;48.654;8.932;2023-08-17T09:55:29;29.40;99.90
7174;DHT22;3628;48.654;8.932;2023-08-17T09:57:55;29.50;99.90
7174;DHT22;3628;48.654;8.932;2023-08-17T10:00:21;29.60;99.90
7174;DHT22;3628;48.654;8.932;2023-08-17T10:02:50;29.50;99.90
7174;DHT22;3628;48.654;8.932;2023-08-17T10:05:18;29.50;99.90
7174;DHT22;3628;48.654;8.932;2023-08-17T10:07:50;29.60;99.90
7174;DHT22;3628;48.654;8.932;2023-08-17T10:10:21;29.70;99.90
7174;DHT22;3628;48.654;8.932;2023-08-17T10:13:12;29.70;99.90
7174;DHT22;3628;48.654;8.932;2023-08-17T10:15:47;29.90;99.90
7174;DHT22;3628;48.654;8.932;2023-08-17T10:21:00;29.90;99.90
7174;DHT22;3628;48.654;8.932;2023-08-17T10:23:28;30.00;99.90
7174;DHT22;3628;48.654;8.932;2023-08-17T10:25:54;30.00;99.90
7174;DHT22;3628;48.654;8.932;2023-08-17T10:28:22;30.20;99.90
7174;DHT22;3628;48.654;8.932;2023-08-17T10:30:48;30.10;99.90
7174;DHT22;3628;48.654;8.932;2023-08-17T10:33:14;30.30;99.90
7174;DHT22;3628;48.654;8.932;2023-08-17T10:35:41;30.40;99.90
7174;DHT22;3628;48.654;8.932;2023-08-17T10:38:08;30.40;99.90
7174;DHT22;3628;48.654;8.932;2023-08-17T10:40:40;30.50;99.90
7174;DHT22;3628;48.654;8.932;2023-08-17T10:43:06;30.50;99.90
7174;DHT22;3628;48.654;8.932;2023-08-17T10:45:33;30.70;99.90
7174;DHT22;3628;48.654;8.932;2023-08-17T10:50:33;31.20;99.90
7174;DHT22;3628;48.654;8.932;2023-08-17T10:53:04;31.50;99.90
7174;DHT22;3628;48.654;8.932;2023-08-17T10:55:41;31.50;99.90
7174;DHT22;3628;48.654;8.932;2023-08-17T10:58:07;31.50;99.90
7174;DHT22;3628;48.654;8.932;2023-08-17T11:00:37;31.50;99.90
7174;DHT22;3628;48.654;8.932;2023-08-17T11:03:08;31.50;99.90
7174;DHT22;3628;48.654;8.932;2023-08-17T11:08:10;31.80;99.90
7174;DHT22;3628;48.654;8.932;2023-08-17T11:10:37;32.00;99.90
7174;DHT22;3628;48.654;8.932;2023-08-17T11:13:04;32.10;99.90
7174;DHT22;3628;48.654;8.932;2023-08-17T11:15:43;32.30;99.90
7174;DHT22;3628;48.654;8.932;2023-08-17T11:18:11;32.40;99.90
7174;DHT22;3628;48.654;8.932;2023-08-17T11:20:38;32.40;99.90
7174;DHT22;3628;48.654;8.932;2023-08-17T11:23:05;32.60;99.90
7174;DHT22;3628;48.654;8.932;2023-08-17T11:25:32;32.70;99.90
7174;DHT22;3628;48.654;8.932;2023-08-17T11:27:59;32.70;99.20
7174;DHT22;3628;48.654;8.932;2023-08-17T11:30:24;32.80;99.80
7174;DHT22;3628;48.654;8.932;2023-08-17T11:32:52;33.00;98.80
7174;DHT22;3628;48.654;8.932;2023-08-17T11:35:18;33.10;97.40
7174;DHT22;3628;48.654;8.932;2023-08-17T11:37:44;33.10;97.00
7174;DHT22;3628;48.654;8.932;2023-08-17T11:40:12;33.10;96.10
7174;DHT22;3628;48.654;8.932;2023-08-17T11:42:39;33.10;95.40
7174;DHT22;3628;48.654;8.932;2023-08-17T11:45:05;32.90;96.80
7174;DHT22;3628;48.654;8.932;2023-08-17T11:47:35;32.80;97.20
7174;DHT22;3628;48.654;8.932;2023-08-17T11:50:02;32.70;98.50
7174;DHT22;3628;48.654;8.932;2023-08-17T11:52:29;32.20;96.40
7174;DHT22;3628;48.654;8.932;2023-08-17T11:54:58;31.80;96.90
7174;DHT22;3628;48.654;8.932;2023-08-17T11:57:23;31.40;96.00
7174;DHT22;3628;48.654;8.932;2023-08-17T11:59:55;31.10;97.40
7174;DHT22;3628;48.654;8.932;2023-08-17T12:02:23;30.80;97.60
7174;DHT22;3628;48.654;8.932;2023-08-17T12:04:49;30.40;98.80
7174;DHT22;3628;48.654;8.932;2023-08-17T12:07:15;30.00;99.90
7174;DHT22;3628;48.654;8.932;2023-08-17T12:09:42;29.90;99.90
7174;DHT22;3628;48.654;8.932;2023-08-17T12:12:08;29.80;99.90
7174;DHT22;3628;48.654;8.932;2023-08-17T12:14:34;29.80;99.90
7174;DHT22;3628;48.654;8.932;2023-08-17T12:17:00;29.60;99.90
7174;DHT22;3628;48.654;8.932;2023-08-17T12:19:25;29.50;99.40
7174;DHT22;3628;48.654;8.932;2023-08-17T12:21:51;29.50;99.90
7174;DHT22;3628;48.654;8.932;2023-08-17T12:24:16;29.50;99.90
7174;DHT22;3628;48.654;8.932;2023-08-17T12:26:45;29.50;99.90
7174;DHT22;3628;48.654;8.932;2023-08-17T12:29:11;29.30;99.90
7174;DHT22;3628;48.654;8.932;2023-08-17T12:31:37;29.20;99.90
7174;DHT22;3628;48.654;8.932;2023-08-17T12:34:03;29.20;99.90
7174;DHT22;3628;48.654;8.932;2023-08-17T12:36:31;29.10;99.90
7174;DHT22;3628;48.654;8.932;2023-08-17T12:38:57;29.00;99.90
7174;DHT22;3628;48.654;8.932;2023-08-17T12:41:22;28.70;99.90
7174;DHT22;3628;48.654;8.932;2023-08-17T12:43:48;28.20;99.90
7174;DHT22;3628;48.654;8.932;2023-08-17T12:46:13;27.40;99.90
7174;DHT22;3628;48.654;8.932;2023-08-17T12:48:39;26.80;99.90
7174;DHT22;3628;48.654;8.932;2023-08-17T12:51:05;26.40;99.90
7174;DHT22;3628;48.654;8.932;2023-08-17T12:53:30;26.00;99.90
7174;DHT22;3628;48.654;8.932;2023-08-17T12:55:56;25.80;99.90
7174;DHT22;3628;48.654;8.932;2023-08-17T12:58:22;25.60;99.90
7174;DHT22;3628;48.654;8.932;2023-08-17T13:00:47;25.60;99.90
7174;DHT22;3628;48.654;8.932;2023-08-17T13:03:17;25.50;99.90
7174;DHT22;3628;48.654;8.932;2023-08-17T13:05:43;25.10;99.90
7174;DHT22;3628;48.654;8.932;2023-08-17T13:08:08;24.90;99.90
7174;DHT22;3628;48.654;8.932;2023-08-17T13:10:34;24.60;99.90
7174;DHT22;3628;48.654;8.932;2023-08-17T13:13:00;24.50;99.90
7174;DHT22;3628;48.654;8.932;2023-08-17T13:15:25;24.50;99.90
7174;DHT22;3628;48.654;8.932;2023-08-17T13:17:51;24.50;99.90
7174;DHT22;3628;48.654;8.932;2023-08-17T13:20:17;24.50;99.90
7174;DHT22;3628;48.654;8.932;2023-08-17T13:22:42;24.60;99.90
7174;DHT22;3628;48.654;8.932;2023-08-17T13:25:08;24.70;99.90
7174;DHT22;3628;48.654;8.932;2023-08-17T13:27:33;24.80;99.90
7174;DHT22;3628;48.654;8.932;2023-08-17T13:29:59;24.90;99.90
7174;DHT22;3628;48.654;8.932;2023-08-17T13:32:25;24.80;99.90
7174;DHT22;3628;48.654;8.932;2023-08-17T13:34:51;24.80;99.90
7174;DHT22;3628;48.654;8.932;2023-08-17T13:37:16;24.70;99.90
7174;DHT22;3628;48.654;8.932;2023-08-17T13:39:43;24.50;99.90
7174;DHT22;3628;48.654;8.932;2023-08-17T13:42:08;24.60;99.90
7174;DHT22;3628;48.654;8.932;2023-08-17T13:44:34;24.30;99.90
7174;DHT22;3628;48.654;8.932;2023-08-17T13:47:00;24.20;99.90
7174;DHT22;3628;48.654;8.932;2023-08-17T13:49:25;24.00;99.90
7174;DHT22;3628;48.654;8.932;2023-08-17T13:51:53;23.90;99.90
7174;DHT22;3628;48.654;8.932;2023-08-17T13:54:18;23.80;99.90
7174;DHT22;3628;48.654;8.932;2023-08-17T13:56:44;23.50;99.90
7174;DHT22;3628;48.654;8.932;2023-08-17T13:59:09;23.30;99.90
7174;DHT22;3628;48.654;8.932;2023-08-17T14:01:35;23.20;99.90
7174;DHT22;3628;48.654;8.932;2023-08-17T14:04:00;23.20;99.90
7174;DHT22;3628;48.654;8.932;2023-08-17T14:06:28;23.30;99.90
7174;DHT22;3628;48.654;8.932;2023-08-17T14:08:57;23.20;99.90
7174;DHT22;3628;48.654;8.932;2023-08-17T14:11:22;23.30;99.90
7174;DHT22;3628;48.654;8.932;2023-08-17T14:13:47;23.30;99.90
7174;DHT22;3628;48.654;8.932;2023-08-17T14:16:13;23.30;99.90
7174;DHT22;3628;48.654;8.932;2023-08-17T14:18:39;23.40;99.90
7174;DHT22;3628;48.654;8.932;2023-08-17T14:21:04;23.60;99.90
7174;DHT22;3628;48.654;8.932;2023-08-17T14:23:29;23.80;99.90
7174;DHT22;3628;48.654;8.932;2023-08-17T14:25:55;24.00;99.90
7174;DHT22;3628;48.654;8.932;2023-08-17T14:28:21;24.10;99.90
7174;DHT22;3628;48.654;8.932;2023-08-17T14:30:46;24.20;99.90
7174;DHT22;3628;48.654;8.932;2023-08-17T14:33:12;24.40;99.90
7174;DHT22;3628;48.654;8.932;2023-08-17T14:35:40;24.80;99.90
7174;DHT22;3628;48.654;8.932;2023-08-17T14:38:06;25.10;99.90
7174;DHT22;3628;48.654;8.932;2023-08-17T14:40:35;25.50;99.90
7174;DHT22;3628;48.654;8.932;2023-08-17T14:43:00;25.80;99.90
7174;DHT22;3628;48.654;8.932;2023-08-17T14:45:26;26.10;99.90
7174;DHT22;3628;48.654;8.932;2023-08-17T14:47:51;26.30;99.90
7174;DHT22;3628;48.654;8.932;2023-08-17T14:50:17;26.60;99.90
7174;DHT22;3628;48.654;8.932;2023-08-17T14:52:42;27.00;99.90
7174;DHT22;3628;48.654;8.932;2023-08-17T14:55:08;27.30;99.90
7174;DHT22;3628;48.654;8.932;2023-08-17T14:57:34;27.40;99.90
7174;DHT22;3628;48.654;8.932;2023-08-17T15:00:00;27.60;99.90
7174;DHT22;3628;48.654;8.932;2023-08-17T15:02:25;27.90;99.90
7174;DHT22;3628;48.654;8.932;2023-08-17T15:04:51;27.90;99.90
7174;DHT22;3628;48.654;8.932;2023-08-17T15:07:16;28.10;99.90
7174;DHT22;3628;48.654;8.932;2023-08-17T15:09:42;28.00;99.90
7174;DHT22;3628;48.654;8.932;2023-08-17T15:12:07;28.00;99.90
7174;DHT22;3628;48.654;8.932;2023-08-17T15:14:33;27.90;99.90
7174;DHT22;3628;48.654;8.932;2023-08-17T15:16:58;27.70;99.90
7174;DHT22;3628;48.654;8.932;2023-08-17T15:19:24;27.70;99.90
7174;DHT22;3628;48.654;8.932;2023-08-17T15:21:49;27.70;99.90
7174;DHT22;3628;48.654;8.932;2023-08-17T15:24:15;27.70;99.90
7174;DHT22;3628;48.654;8.932;2023-08-17T15:26:40;27.90;99.90
7174;DHT22;3628;48.654;8.932;2023-08-17T15:29:06;27.80;99.90
7174;DHT22;3628;48.654;8.932;2023-08-17T15:31:31;27.80;99.90
7174;DHT22;3628;48.654;8.932;2023-08-17T15:33:57;27.80;99.90
7174;DHT22;3628;48.654;8.932;2023-08-17T15:36:22;27.90;99.90
7174;DHT22;3628;48.654;8.932;2023-08-17T15:38:50;28.10;99.90
7174;DHT22;3628;48.654;8.932;2023-08-17T15:41:15;28.40;99.90
7174;DHT22;3628;48.654;8.932;2023-08-17T15:43:41;28.60;99.90
7174;DHT22;3628;48.654;8.932;2023-08-17T15:46:06;28.80;99.90
7174;DHT22;3628;48.654;8.932;2023-08-17T15:48:33;28.90;99.90
7174;DHT22;3628;48.654;8.932;2023-08-17T15:50:58;29.00;99.90
7174;DHT22;3628;48.654;8.932;2023-08-17T15:53:24;28.90;99.90
7174;DHT22;3628;48.654;8.932;2023-08-17T15:55:49;28.90;99.90
7174;DHT22;3628;48.654;8.932;2023-08-17T15:58:15;29.10;99.90
7174;DHT22;3628;48.654;8.932;2023-08-17T16:00:40;29.20;99.90
7174;DHT22;3628;48.654;8.932;2023-08-17T16:03:07;29.40;99.90
7174;DHT22;3628;48.654;8.932;2023-08-17T16:05:33;29.60;99.90
7174;DHT22;3628;48.654;8.932;2023-08-17T16:07:58;29.90;99.90